Home > Products > Valid Products > TAF

000
FTUS43 KGRB 271100
TAFGRB
TAF
KGRB 271128Z 2712/2812 34010KT P6SM SCT035
     FM271500 36011G17KT P6SM SCT035
     FM280000 04005KT P6SM SKC=



000
FTUS43 KGRB 271100
TAFGRB
TAF
KGRB 271128Z 2712/2812 34010KT P6SM SCT035
     FM271500 36011G17KT P6SM SCT035
     FM280000 04005KT P6SM SKC=



000
FTUS43 KGRB 270900 AAA
TAFGRB
TAF AMD
KGRB 270907Z 2709/2806 34011G15KT P6SM SCT040
     FM271500 36011KT P6SM SCT035
     FM280000 03005KT P6SM SKC=



000
FTUS43 KGRB 270900 AAA
TAFGRB
TAF AMD
KGRB 270907Z 2709/2806 34011G15KT P6SM SCT040
     FM271500 36011KT P6SM SCT035
     FM280000 03005KT P6SM SKC=



000
FTUS43 KGRB 270900 AAA
TAFGRB
TAF AMD
KGRB 270907Z 2709/2806 34011G15KT P6SM SCT040
     FM271500 36011KT P6SM SCT035
     FM280000 03005KT P6SM SKC=



000
FTUS43 KGRB 270900 AAA
TAFGRB
TAF AMD
KGRB 270907Z 2709/2806 34011G15KT P6SM SCT040
     FM271500 36011KT P6SM SCT035
     FM280000 03005KT P6SM SKC=



000
FTUS43 KGRB 270500
TAFGRB
TAF
KGRB 270525Z 2706/2806 36011G15KT P6SM SCT040
     FM271500 36011KT P6SM SCT035
     FM280000 03005KT P6SM SKC=



000
FTUS43 KGRB 270500
TAFGRB
TAF
KGRB 270525Z 2706/2806 36011G15KT P6SM SCT040
     FM271500 36011KT P6SM SCT035
     FM280000 03005KT P6SM SKC=



000
FTUS43 KGRB 270500
TAFGRB
TAF
KGRB 270525Z 2706/2806 36011G15KT P6SM SCT040
     FM271500 36011KT P6SM SCT035
     FM280000 03005KT P6SM SKC=



000
FTUS43 KGRB 270500
TAFGRB
TAF
KGRB 270525Z 2706/2806 36011G15KT P6SM SCT040
     FM271500 36011KT P6SM SCT035
     FM280000 03005KT P6SM SKC=



000
FTUS43 KGRB 270300 AAA
TAFGRB
TAF AMD
KGRB 270312Z 2703/2724 36011KT P6SM BKN040
     FM270500 36011KT P6SM SCT040
     FM271500 36011KT P6SM SCT035=



000
FTUS43 KGRB 270300 AAA
TAFGRB
TAF AMD
KGRB 270312Z 2703/2724 36011KT P6SM BKN040
     FM270500 36011KT P6SM SCT040
     FM271500 36011KT P6SM SCT035=



000
FTUS43 KGRB 270300 AAA
TAFGRB
TAF AMD
KGRB 270312Z 2703/2724 36011KT P6SM BKN040
     FM270500 36011KT P6SM SCT040
     FM271500 36011KT P6SM SCT035=



000
FTUS43 KGRB 262300
TAFGRB
TAF
KGRB 262330Z 2700/2724 33012G18KT P6SM -SN BKN040
     FM270100 35011KT P6SM BKN040
     FM270400 35011KT P6SM SCT040
     FM271500 36011KT P6SM SCT035=



000
FTUS43 KGRB 262300
TAFGRB
TAF
KGRB 262330Z 2700/2724 33012G18KT P6SM -SN BKN040
     FM270100 35011KT P6SM BKN040
     FM270400 35011KT P6SM SCT040
     FM271500 36011KT P6SM SCT035=



000
FTUS43 KGRB 261700
TAFGRB
TAF
KGRB 261721Z 2618/2718 33012G18KT P6SM BKN035
     FM270100 35011KT P6SM BKN040
     FM270300 35011KT P6SM SCT040
     FM271500 36011KT P6SM SCT035=



000
FTUS43 KGRB 261700
TAFGRB
TAF
KGRB 261721Z 2618/2718 33012G18KT P6SM BKN035
     FM270100 35011KT P6SM BKN040
     FM270300 35011KT P6SM SCT040
     FM271500 36011KT P6SM SCT035=



000
FTUS43 KGRB 261500 AAA
TAFGRB
TAF AMD
KGRB 261557Z 2616/2712 33010G18KT P6SM OVC030
     FM262100 33012G18KT P6SM BKN035
     FM270200 35010G17KT P6SM SCT040=



000
FTUS43 KGRB 261500 AAA
TAFGRB
TAF AMD
KGRB 261557Z 2616/2712 33010G18KT P6SM OVC030
     FM262100 33012G18KT P6SM BKN035
     FM270200 35010G17KT P6SM SCT040=



000
FTUS43 KGRB 261100
TAFGRB
TAF
KGRB 261129Z 2612/2712 29011G17KT P6SM OVC035
     FM261500 32013G19KT P6SM BKN035
     FM270200 35010G17KT P6SM SCT040=



000
FTUS43 KGRB 261100
TAFGRB
TAF
KGRB 261129Z 2612/2712 29011G17KT P6SM OVC035
     FM261500 32013G19KT P6SM BKN035
     FM270200 35010G17KT P6SM SCT040=



000
FTUS43 KGRB 261100
TAFGRB
TAF
KGRB 261129Z 2612/2712 29011G17KT P6SM OVC035
     FM261500 32013G19KT P6SM BKN035
     FM270200 35010G17KT P6SM SCT040=



000
FTUS43 KGRB 260800 AAA
TAFGRB
TAF AMD
KGRB 260856Z 2609/2706 29010KT P6SM OVC040
     FM261100 29009KT P6SM BKN035
     FM261500 32013G18KT P6SM BKN035
     FM270200 34011KT P6SM SCT030=



000
FTUS43 KGRB 260800 AAA
TAFGRB
TAF AMD
KGRB 260856Z 2609/2706 29010KT P6SM OVC040
     FM261100 29009KT P6SM BKN035
     FM261500 32013G18KT P6SM BKN035
     FM270200 34011KT P6SM SCT030=



000
FTUS43 KGRB 260800 AAA
TAFGRB
TAF AMD
KGRB 260856Z 2609/2706 29010KT P6SM OVC040
     FM261100 29009KT P6SM BKN035
     FM261500 32013G18KT P6SM BKN035
     FM270200 34011KT P6SM SCT030=



000
FTUS43 KGRB 260500
TAFGRB
TAF
KGRB 260520Z 2606/2706 26012G16KT P6SM BKN035
     FM260800 26010KT P6SM BKN035
     FM261100 29009KT P6SM BKN030
     FM261500 32013G18KT P6SM BKN030
     FM270200 34011KT P6SM SCT030=



000
FTUS43 KGRB 260300 AAA
TAFGRB
TAF AMD
KGRB 260302Z 2603/2624 26013G17KT P6SM BKN035
     FM260700 26010KT P6SM BKN035
     FM261100 29009KT P6SM BKN030
     FM261500 32013G18KT P6SM BKN030=



000
FTUS43 KGRB 260300 AAA
TAFGRB
TAF AMD
KGRB 260302Z 2603/2624 26013G17KT P6SM BKN035
     FM260700 26010KT P6SM BKN035
     FM261100 29009KT P6SM BKN030
     FM261500 32013G18KT P6SM BKN030=



000
FTUS43 KGRB 252300 RRA
TAFGRB
TAF
KGRB 252341Z 2600/2624 25017G25KT P6SM BKN035
     FM260100 26013G20KT P6SM BKN035
     FM260400 26010KT P6SM SCT030 SCT200
     FM261100 29009KT P6SM BKN030
     FM261500 32013G18KT P6SM BKN030=



000
FTUS43 KGRB 252300 RRA
TAFGRB
TAF
KGRB 252341Z 2600/2624 25017G25KT P6SM BKN035
     FM260100 26013G20KT P6SM BKN035
     FM260400 26010KT P6SM SCT030 SCT200
     FM261100 29009KT P6SM BKN030
     FM261500 32013G18KT P6SM BKN030=



000
FTUS43 KGRB 252300 RRA
TAFGRB
TAF
KGRB 252341Z 2600/2624 25017G25KT P6SM BKN035
     FM260100 26013G20KT P6SM BKN035
     FM260400 26010KT P6SM SCT030 SCT200
     FM261100 29009KT P6SM BKN030
     FM261500 32013G18KT P6SM BKN030=



000
FTUS43 KGRB 252300 RRA
TAFGRB
TAF
KGRB 252341Z 2600/2624 25017G25KT P6SM BKN035
     FM260100 26013G20KT P6SM BKN035
     FM260400 26010KT P6SM SCT030 SCT200
     FM261100 29009KT P6SM BKN030
     FM261500 32013G18KT P6SM BKN030=



000
FTUS43 KGRB 252000 AAA
TAFGRB
TAF AMD
KGRB 252059Z 2521/2618 25017G25KT P6SM BKN035
     FM260100 26013G20KT P6SM BKN035
     FM260400 26010KT P6SM SCT035 SCT200
     FM261100 29009KT P6SM BKN030
     FM261500 32013G18KT P6SM BKN035=



000
FTUS43 KGRB 252000 AAA
TAFGRB
TAF AMD
KGRB 252059Z 2521/2618 25017G25KT P6SM BKN035
     FM260100 26013G20KT P6SM BKN035
     FM260400 26010KT P6SM SCT035 SCT200
     FM261100 29009KT P6SM BKN030
     FM261500 32013G18KT P6SM BKN035=



000
FTUS43 KGRB 251700
TAFGRB
TAF
KGRB 251725Z 2518/2618 24015G23KT P6SM BKN016 OVC025
     FM252000 25017G25KT P6SM BKN020 OVC050
     FM260100 26013G20KT P6SM BKN030
     FM260400 26010KT P6SM SCT030 SCT200
     FM261100 29009KT P6SM BKN025
     FM261500 32013G18KT P6SM BKN035=



000
FTUS43 KGRB 251700
TAFGRB
TAF
KGRB 251725Z 2518/2618 24015G23KT P6SM BKN016 OVC025
     FM252000 25017G25KT P6SM BKN020 OVC050
     FM260100 26013G20KT P6SM BKN030
     FM260400 26010KT P6SM SCT030 SCT200
     FM261100 29009KT P6SM BKN025
     FM261500 32013G18KT P6SM BKN035=



000
FTUS43 KGRB 251700
TAFGRB
TAF
KGRB 251725Z 2518/2618 24015G23KT P6SM BKN016 OVC025
     FM252000 25017G25KT P6SM BKN020 OVC050
     FM260100 26013G20KT P6SM BKN030
     FM260400 26010KT P6SM SCT030 SCT200
     FM261100 29009KT P6SM BKN025
     FM261500 32013G18KT P6SM BKN035=



000
FTUS43 KGRB 251400 AAB
TAFGRB
TAF AMD
KGRB 251421Z 2514/2612 25010KT 4SM BR OVC006
      TEMPO 2515/2519 P6SM NSW SCT006 OVC012
     FM251900 24015G28KT P6SM BKN020
     FM260100 26010KT P6SM BKN100=



000
FTUS43 KGRB 251400 AAB
TAFGRB
TAF AMD
KGRB 251421Z 2514/2612 25010KT 4SM BR OVC006
      TEMPO 2515/2519 P6SM NSW SCT006 OVC012
     FM251900 24015G28KT P6SM BKN020
     FM260100 26010KT P6SM BKN100=



000
FTUS43 KGRB 251300 AAA
TAFGRB
TAF AMD
KGRB 251313Z 2513/2612 09002KT 4SM -SN BR SCT008 OVC020
      TEMPO 2513/2515 2SM BR BKN006
     FM251500 26009KT P6SM OVC014
     FM251900 24015G28KT P6SM BKN020
     FM260100 26010KT P6SM BKN100=



000
FTUS43 KGRB 251300 AAA
TAFGRB
TAF AMD
KGRB 251313Z 2513/2612 09002KT 4SM -SN BR SCT008 OVC020
      TEMPO 2513/2515 2SM BR BKN006
     FM251500 26009KT P6SM OVC014
     FM251900 24015G28KT P6SM BKN020
     FM260100 26010KT P6SM BKN100=



000
FTUS43 KGRB 251300 AAA
TAFGRB
TAF AMD
KGRB 251313Z 2513/2612 09002KT 4SM -SN BR SCT008 OVC020
      TEMPO 2513/2515 2SM BR BKN006
     FM251500 26009KT P6SM OVC014
     FM251900 24015G28KT P6SM BKN020
     FM260100 26010KT P6SM BKN100=



000
FTUS43 KGRB 251300 AAA
TAFGRB
TAF AMD
KGRB 251313Z 2513/2612 09002KT 4SM -SN BR SCT008 OVC020
      TEMPO 2513/2515 2SM BR BKN006
     FM251500 26009KT P6SM OVC014
     FM251900 24015G28KT P6SM BKN020
     FM260100 26010KT P6SM BKN100=



000
FTUS43 KGRB 251100 AAA
TAFGRB
TAF AMD
KGRB 251155Z 2512/2612 VRB03KT 1SM -SN OVC012
     FM251300 09002KT 3SM -SN OVC010
     FM251500 26009KT P6SM OVC014
     FM251900 24015G28KT P6SM BKN020
     FM260100 26010KT P6SM BKN100=



000
FTUS43 KGRB 251100 AAA
TAFGRB
TAF AMD
KGRB 251155Z 2512/2612 VRB03KT 1SM -SN OVC012
     FM251300 09002KT 3SM -SN OVC010
     FM251500 26009KT P6SM OVC014
     FM251900 24015G28KT P6SM BKN020
     FM260100 26010KT P6SM BKN100=



000
FTUS43 KGRB 251100 AAA
TAFGRB
TAF AMD
KGRB 251155Z 2512/2612 VRB03KT 1SM -SN OVC012
     FM251300 09002KT 3SM -SN OVC010
     FM251500 26009KT P6SM OVC014
     FM251900 24015G28KT P6SM BKN020
     FM260100 26010KT P6SM BKN100=



000
FTUS43 KGRB 251100 AAA
TAFGRB
TAF AMD
KGRB 251155Z 2512/2612 VRB03KT 1SM -SN OVC012
     FM251300 09002KT 3SM -SN OVC010
     FM251500 26009KT P6SM OVC014
     FM251900 24015G28KT P6SM BKN020
     FM260100 26010KT P6SM BKN100=



000
FTUS43 KGRB 251100
TAFGRB
TAF
KGRB 251125Z 2512/2612 08003KT 1/2SM SN OVC006
     FM251300 09002KT 3SM -SN OVC010
     FM251500 26009KT P6SM OVC014
     FM251900 24015G28KT P6SM BKN020
     FM260100 26010KT P6SM BKN100=



000
FTUS43 KGRB 251100
TAFGRB
TAF
KGRB 251125Z 2512/2612 08003KT 1/2SM SN OVC006
     FM251300 09002KT 3SM -SN OVC010
     FM251500 26009KT P6SM OVC014
     FM251900 24015G28KT P6SM BKN020
     FM260100 26010KT P6SM BKN100=



000
FTUS43 KGRB 250900 AAC
TAFGRB
TAF AMD
KGRB 250928Z 2509/2606 10007KT 1SM -SN SCT009 OVC018
     FM251030 08003KT 1SM -SN OVC007
      TEMPO 2511/2513 1/2SM SN OVC004
     FM251300 09002KT 2SM -SN OVC004
     FM251500 26009KT P6SM OVC010
     FM251600 25012KT P6SM BKN015
     FM252000 24012G18KT P6SM SCT015 BKN070
     FM260100 26010KT P6SM BKN100=



000
FTUS43 KGRB 250900 AAC
TAFGRB
TAF AMD
KGRB 250928Z 2509/2606 10007KT 1SM -SN SCT009 OVC018
     FM251030 08003KT 1SM -SN OVC007
      TEMPO 2511/2513 1/2SM SN OVC004
     FM251300 09002KT 2SM -SN OVC004
     FM251500 26009KT P6SM OVC010
     FM251600 25012KT P6SM BKN015
     FM252000 24012G18KT P6SM SCT015 BKN070
     FM260100 26010KT P6SM BKN100=



000
FTUS43 KGRB 250900 AAC
TAFGRB
TAF AMD
KGRB 250928Z 2509/2606 10007KT 1SM -SN SCT009 OVC018
     FM251030 08003KT 1SM -SN OVC007
      TEMPO 2511/2513 1/2SM SN OVC004
     FM251300 09002KT 2SM -SN OVC004
     FM251500 26009KT P6SM OVC010
     FM251600 25012KT P6SM BKN015
     FM252000 24012G18KT P6SM SCT015 BKN070
     FM260100 26010KT P6SM BKN100=



000
FTUS43 KGRB 250900 AAC
TAFGRB
TAF AMD
KGRB 250928Z 2509/2606 10007KT 1SM -SN SCT009 OVC018
     FM251030 08003KT 1SM -SN OVC007
      TEMPO 2511/2513 1/2SM SN OVC004
     FM251300 09002KT 2SM -SN OVC004
     FM251500 26009KT P6SM OVC010
     FM251600 25012KT P6SM BKN015
     FM252000 24012G18KT P6SM SCT015 BKN070
     FM260100 26010KT P6SM BKN100=



000
FTUS43 KGRB 250800 AAB
TAFGRB
TAF AMD
KGRB 250836Z 2509/2606 07007KT 2SM -FZRAPL SCT020 BKN040
     FM250930 10007KT 1SM -SN SCT009 OVC018
     FM251000 08003KT 1/2SM SN OVC005
      TEMPO 2510/2512 1/4SM +SN
     FM251300 09002KT 2SM -SN OVC004
     FM251500 26009KT P6SM OVC010
     FM251600 25012KT P6SM BKN015
     FM252000 24012G18KT P6SM SCT015 BKN070
     FM260100 26010KT P6SM BKN100=



000
FTUS43 KGRB 250800 AAB
TAFGRB
TAF AMD
KGRB 250836Z 2509/2606 07007KT 2SM -FZRAPL SCT020 BKN040
     FM250930 10007KT 1SM -SN SCT009 OVC018
     FM251000 08003KT 1/2SM SN OVC005
      TEMPO 2510/2512 1/4SM +SN
     FM251300 09002KT 2SM -SN OVC004
     FM251500 26009KT P6SM OVC010
     FM251600 25012KT P6SM BKN015
     FM252000 24012G18KT P6SM SCT015 BKN070
     FM260100 26010KT P6SM BKN100=



000
FTUS43 KGRB 250800 AAB
TAFGRB
TAF AMD
KGRB 250836Z 2509/2606 07007KT 2SM -FZRAPL SCT020 BKN040
     FM250930 10007KT 1SM -SN SCT009 OVC018
     FM251000 08003KT 1/2SM SN OVC005
      TEMPO 2510/2512 1/4SM +SN
     FM251300 09002KT 2SM -SN OVC004
     FM251500 26009KT P6SM OVC010
     FM251600 25012KT P6SM BKN015
     FM252000 24012G18KT P6SM SCT015 BKN070
     FM260100 26010KT P6SM BKN100=



000
FTUS43 KGRB 250800 AAB
TAFGRB
TAF AMD
KGRB 250836Z 2509/2606 07007KT 2SM -FZRAPL SCT020 BKN040
     FM250930 10007KT 1SM -SN SCT009 OVC018
     FM251000 08003KT 1/2SM SN OVC005
      TEMPO 2510/2512 1/4SM +SN
     FM251300 09002KT 2SM -SN OVC004
     FM251500 26009KT P6SM OVC010
     FM251600 25012KT P6SM BKN015
     FM252000 24012G18KT P6SM SCT015 BKN070
     FM260100 26010KT P6SM BKN100=



000
FTUS43 KGRB 250700 AAA
TAFGRB
TAF AMD
KGRB 250748Z 2508/2606 07007KT 3SM -SNPL SCT020 BKN040
     FM250900 10007KT 1SM -SN SCT009 OVC018
     FM251000 08003KT 1/2SM SN OVC005
      TEMPO 2510/2512 1/4SM +SN
     FM251300 09002KT 2SM -SN OVC004
     FM251500 26009KT P6SM OVC010
     FM251600 25012KT P6SM BKN015
     FM252000 24012G18KT P6SM SCT015 BKN070
     FM260100 26010KT P6SM BKN100=



000
FTUS43 KGRB 250700 AAA
TAFGRB
TAF AMD
KGRB 250748Z 2508/2606 07007KT 3SM -SNPL SCT020 BKN040
     FM250900 10007KT 1SM -SN SCT009 OVC018
     FM251000 08003KT 1/2SM SN OVC005
      TEMPO 2510/2512 1/4SM +SN
     FM251300 09002KT 2SM -SN OVC004
     FM251500 26009KT P6SM OVC010
     FM251600 25012KT P6SM BKN015
     FM252000 24012G18KT P6SM SCT015 BKN070
     FM260100 26010KT P6SM BKN100=



000
FTUS43 KGRB 250700 AAA
TAFGRB
TAF AMD
KGRB 250748Z 2508/2606 07007KT 3SM -SNPL SCT020 BKN040
     FM250900 10007KT 1SM -SN SCT009 OVC018
     FM251000 08003KT 1/2SM SN OVC005
      TEMPO 2510/2512 1/4SM +SN
     FM251300 09002KT 2SM -SN OVC004
     FM251500 26009KT P6SM OVC010
     FM251600 25012KT P6SM BKN015
     FM252000 24012G18KT P6SM SCT015 BKN070
     FM260100 26010KT P6SM BKN100=



000
FTUS43 KGRB 250700 AAA
TAFGRB
TAF AMD
KGRB 250748Z 2508/2606 07007KT 3SM -SNPL SCT020 BKN040
     FM250900 10007KT 1SM -SN SCT009 OVC018
     FM251000 08003KT 1/2SM SN OVC005
      TEMPO 2510/2512 1/4SM +SN
     FM251300 09002KT 2SM -SN OVC004
     FM251500 26009KT P6SM OVC010
     FM251600 25012KT P6SM BKN015
     FM252000 24012G18KT P6SM SCT015 BKN070
     FM260100 26010KT P6SM BKN100=



000
FTUS43 KGRB 250500
TAFGRB
TAF
KGRB 250534Z 2506/2606 09007KT P6SM SCT040 BKN100
      TEMPO 2507/2508 4SM -SNPL SCT025 OVC035
     FM250800 07007KT 1 1/2SM -SNPL OVC005
      TEMPO 2508/2512 1/2SM SN OVC003
     FM251300 26009KT P6SM OVC010
     FM251600 25012KT P6SM BKN015
     FM252000 24012G18KT P6SM SCT015 BKN070
     FM260100 26010KT P6SM BKN100=



000
FTUS43 KGRB 250500
TAFGRB
TAF
KGRB 250534Z 2506/2606 09007KT P6SM SCT040 BKN100
      TEMPO 2507/2508 4SM -SNPL SCT025 OVC035
     FM250800 07007KT 1 1/2SM -SNPL OVC005
      TEMPO 2508/2512 1/2SM SN OVC003
     FM251300 26009KT P6SM OVC010
     FM251600 25012KT P6SM BKN015
     FM252000 24012G18KT P6SM SCT015 BKN070
     FM260100 26010KT P6SM BKN100=



000
FTUS43 KGRB 250500 AAA
TAFGRB
TAF AMD
KGRB 250512Z 2505/2524 11009KT P6SM SCT150 BKN250
     FM250630 09009KT 4SM -SNPL SCT012 OVC025
     FM250800 07007KT 1 1/2SM -SNPL OVC005
      TEMPO 2508/2511 1/2SM SN OVC003
     FM251300 26009KT P6SM OVC010
     FM251600 25012KT P6SM BKN015
     FM252000 24012G18KT P6SM SCT015 BKN070=



000
FTUS43 KGRB 250500 AAA
TAFGRB
TAF AMD
KGRB 250512Z 2505/2524 11009KT P6SM SCT150 BKN250
     FM250630 09009KT 4SM -SNPL SCT012 OVC025
     FM250800 07007KT 1 1/2SM -SNPL OVC005
      TEMPO 2508/2511 1/2SM SN OVC003
     FM251300 26009KT P6SM OVC010
     FM251600 25012KT P6SM BKN015
     FM252000 24012G18KT P6SM SCT015 BKN070=



000
FTUS43 KGRB 250500 AAA
TAFGRB
TAF AMD
KGRB 250512Z 2505/2524 11009KT P6SM SCT150 BKN250
     FM250630 09009KT 4SM -SNPL SCT012 OVC025
     FM250800 07007KT 1 1/2SM -SNPL OVC005
      TEMPO 2508/2511 1/2SM SN OVC003
     FM251300 26009KT P6SM OVC010
     FM251600 25012KT P6SM BKN015
     FM252000 24012G18KT P6SM SCT015 BKN070=



000
FTUS43 KGRB 242300
TAFGRB
TAF
KGRB 242320Z 2500/2524 13010KT P6SM SKC
     FM250100 11009KT P6SM SCT150 BKN250
     FM250500 09009KT 4SM -SNPL SCT012 OVC025
     FM250800 07007KT 1 1/2SM -SNPL OVC005
      TEMPO 2508/2511 1/2SM SN OVC003
     FM251300 26009KT P6SM OVC010
     FM251600 25012KT P6SM BKN015
     FM252000 24012G18KT P6SM SCT015 BKN070=



000
FTUS43 KGRB 242300
TAFGRB
TAF
KGRB 242320Z 2500/2524 13010KT P6SM SKC
     FM250100 11009KT P6SM SCT150 BKN250
     FM250500 09009KT 4SM -SNPL SCT012 OVC025
     FM250800 07007KT 1 1/2SM -SNPL OVC005
      TEMPO 2508/2511 1/2SM SN OVC003
     FM251300 26009KT P6SM OVC010
     FM251600 25012KT P6SM BKN015
     FM252000 24012G18KT P6SM SCT015 BKN070=



000
FTUS43 KGRB 242300
TAFGRB
TAF
KGRB 242320Z 2500/2524 13010KT P6SM SKC
     FM250100 11009KT P6SM SCT150 BKN250
     FM250500 09009KT 4SM -SNPL SCT012 OVC025
     FM250800 07007KT 1 1/2SM -SNPL OVC005
      TEMPO 2508/2511 1/2SM SN OVC003
     FM251300 26009KT P6SM OVC010
     FM251600 25012KT P6SM BKN015
     FM252000 24012G18KT P6SM SCT015 BKN070=



000
FTUS43 KGRB 242300
TAFGRB
TAF
KGRB 242320Z 2500/2524 13010KT P6SM SKC
     FM250100 11009KT P6SM SCT150 BKN250
     FM250500 09009KT 4SM -SNPL SCT012 OVC025
     FM250800 07007KT 1 1/2SM -SNPL OVC005
      TEMPO 2508/2511 1/2SM SN OVC003
     FM251300 26009KT P6SM OVC010
     FM251600 25012KT P6SM BKN015
     FM252000 24012G18KT P6SM SCT015 BKN070=



000
FTUS43 KGRB 241700
TAFGRB
TAF
KGRB 241723Z 2418/2518 13010KT P6SM SKC
     FM250100 11009KT P6SM SCT150 BKN250
     FM250700 09009KT 4SM -SNPL SCT012 OVC025
     FM250800 07007KT 1 1/2SM -SNPL OVC005
      TEMPO 2508/2511 1/2SM SN OVC003
     FM251300 26009KT P6SM OVC010
     FM251600 25012G18KT P6SM BKN015=



000
FTUS43 KGRB 241700
TAFGRB
TAF
KGRB 241723Z 2418/2518 13010KT P6SM SKC
     FM250100 11009KT P6SM SCT150 BKN250
     FM250700 09009KT 4SM -SNPL SCT012 OVC025
     FM250800 07007KT 1 1/2SM -SNPL OVC005
      TEMPO 2508/2511 1/2SM SN OVC003
     FM251300 26009KT P6SM OVC010
     FM251600 25012G18KT P6SM BKN015=



000
FTUS43 KGRB 241700
TAFGRB
TAF
KGRB 241723Z 2418/2518 13010KT P6SM SKC
     FM250100 11009KT P6SM SCT150 BKN250
     FM250700 09009KT 4SM -SNPL SCT012 OVC025
     FM250800 07007KT 1 1/2SM -SNPL OVC005
      TEMPO 2508/2511 1/2SM SN OVC003
     FM251300 26009KT P6SM OVC010
     FM251600 25012G18KT P6SM BKN015=



000
FTUS43 KGRB 241700
TAFGRB
TAF
KGRB 241723Z 2418/2518 13010KT P6SM SKC
     FM250100 11009KT P6SM SCT150 BKN250
     FM250700 09009KT 4SM -SNPL SCT012 OVC025
     FM250800 07007KT 1 1/2SM -SNPL OVC005
      TEMPO 2508/2511 1/2SM SN OVC003
     FM251300 26009KT P6SM OVC010
     FM251600 25012G18KT P6SM BKN015=



    US Dept of Commerce
    National Oceanic and Atmospheric Administration
    National Weather Service
    1325 East West Highway
    Silver Spring, MD 20910
    Page Author: NWS Internet Services Team
Disclaimer
Information Quality
Credits
Glossary
Privacy Policy
Freedom of Information Act (FOIA)
About Us
Career Opportunities